sensor_id;sensor_type;location;lat;lon;timestamp;P1;durP1;ratioP1;P2;durP2;ratioP2
26516;SDS011;14190;51.342;6.338;2024-01-25T00:01:50;9.58;;;1.70;;
26516;SDS011;14190;51.342;6.338;2024-01-25T00:04:18;7.33;;;1.42;;
26516;SDS011;14190;51.342;6.338;2024-01-25T00:06:45;20.35;;;2.62;;
26516;SDS011;14190;51.342;6.338;2024-01-25T00:09:12;13.00;;;1.98;;
26516;SDS011;14190;51.342;6.338;2024-01-25T00:11:40;3.95;;;1.82;;
26516;SDS011;14190;51.342;6.338;2024-01-25T00:14:07;7.42;;;2.10;;
26516;SDS011;14190;51.342;6.338;2024-01-25T00:16:34;13.55;;;1.52;;
26516;SDS011;14190;51.342;6.338;2024-01-25T00:19:02;8.60;;;2.02;;
26516;SDS011;14190;51.342;6.338;2024-01-25T00:21:30;10.58;;;1.60;;
26516;SDS011;14190;51.342;6.338;2024-01-25T00:23:57;4.53;;;1.00;;
26516;SDS011;14190;51.342;6.338;2024-01-25T00:26:25;11.73;;;1.52;;
26516;SDS011;14190;51.342;6.338;2024-01-25T00:28:52;3.72;;;1.45;;
26516;SDS011;14190;51.342;6.338;2024-01-25T00:31:20;7.75;;;1.25;;
26516;SDS011;14190;51.342;6.338;2024-01-25T00:33:47;3.20;;;1.82;;
26516;SDS011;14190;51.342;6.338;2024-01-25T00:36:14;3.35;;;1.40;;
26516;SDS011;14190;51.342;6.338;2024-01-25T00:38:42;23.50;;;2.35;;
26516;SDS011;14190;51.342;6.338;2024-01-25T00:41:10;2.77;;;1.50;;
26516;SDS011;14190;51.342;6.338;2024-01-25T00:43:37;5.58;;;2.17;;
26516;SDS011;14190;51.342;6.338;2024-01-25T00:46:04;9.58;;;1.62;;
26516;SDS011;14190;51.342;6.338;2024-01-25T00:48:32;22.87;;;3.35;;
26516;SDS011;14190;51.342;6.338;2024-01-25T00:51:00;5.33;;;1.55;;
26516;SDS011;14190;51.342;6.338;2024-01-25T00:53:27;4.55;;;2.02;;
26516;SDS011;14190;51.342;6.338;2024-01-25T00:55:55;9.20;;;1.55;;
26516;SDS011;14190;51.342;6.338;2024-01-25T00:58:22;1.77;;;1.05;;
26516;SDS011;14190;51.342;6.338;2024-01-25T01:00:50;8.63;;;1.40;;
26516;SDS011;14190;51.342;6.338;2024-01-25T01:03:22;5.00;;;2.50;;
26516;SDS011;14190;51.342;6.338;2024-01-25T01:05:46;1.82;;;1.37;;
26516;SDS011;14190;51.342;6.338;2024-01-25T01:08:14;5.05;;;1.65;;
26516;SDS011;14190;51.342;6.338;2024-01-25T01:10:41;10.32;;;2.15;;
26516;SDS011;14190;51.342;6.338;2024-01-25T01:13:09;4.05;;;1.25;;
26516;SDS011;14190;51.342;6.338;2024-01-25T01:15:36;5.22;;;1.12;;
26516;SDS011;14190;51.342;6.338;2024-01-25T01:18:03;6.28;;;1.67;;
26516;SDS011;14190;51.342;6.338;2024-01-25T01:20:31;9.43;;;1.17;;
26516;SDS011;14190;51.342;6.338;2024-01-25T01:22:59;16.60;;;2.72;;
26516;SDS011;14190;51.342;6.338;2024-01-25T01:25:26;8.43;;;2.37;;
26516;SDS011;14190;51.342;6.338;2024-01-25T01:27:53;1.98;;;1.40;;
26516;SDS011;14190;51.342;6.338;2024-01-25T01:30:21;7.70;;;1.82;;
26516;SDS011;14190;51.342;6.338;2024-01-25T01:32:48;17.35;;;2.10;;
26516;SDS011;14190;51.342;6.338;2024-01-25T01:35:15;16.50;;;2.10;;
26516;SDS011;14190;51.342;6.338;2024-01-25T01:37:43;4.40;;;1.07;;
26516;SDS011;14190;51.342;6.338;2024-01-25T01:40:10;9.65;;;2.72;;
26516;SDS011;14190;51.342;6.338;2024-01-25T01:42:38;5.78;;;1.37;;
26516;SDS011;14190;51.342;6.338;2024-01-25T01:45:06;11.20;;;1.50;;
26516;SDS011;14190;51.342;6.338;2024-01-25T01:47:33;2.42;;;1.40;;
26516;SDS011;14190;51.342;6.338;2024-01-25T01:50:01;1.95;;;1.75;;
26516;SDS011;14190;51.342;6.338;2024-01-25T01:52:28;2.62;;;2.15;;
26516;SDS011;14190;51.342;6.338;2024-01-25T01:54:55;4.35;;;1.60;;
26516;SDS011;14190;51.342;6.338;2024-01-25T01:57:23;11.22;;;1.35;;
26516;SDS011;14190;51.342;6.338;2024-01-25T01:59:50;8.03;;;2.00;;
26516;SDS011;14190;51.342;6.338;2024-01-25T02:02:18;8.48;;;2.50;;
26516;SDS011;14190;51.342;6.338;2024-01-25T02:04:45;8.05;;;1.25;;
26516;SDS011;14190;51.342;6.338;2024-01-25T02:07:13;26.20;;;1.22;;
26516;SDS011;14190;51.342;6.338;2024-01-25T02:09:40;3.17;;;1.20;;
26516;SDS011;14190;51.342;6.338;2024-01-25T02:12:08;6.28;;;1.57;;
26516;SDS011;14190;51.342;6.338;2024-01-25T02:14:35;4.78;;;1.07;;
26516;SDS011;14190;51.342;6.338;2024-01-25T02:17:03;2.45;;;1.12;;
26516;SDS011;14190;51.342;6.338;2024-01-25T02:19:30;11.00;;;1.30;;
26516;SDS011;14190;51.342;6.338;2024-01-25T02:21:57;13.22;;;1.57;;
26516;SDS011;14190;51.342;6.338;2024-01-25T02:24:25;6.00;;;1.50;;
26516;SDS011;14190;51.342;6.338;2024-01-25T02:26:53;8.33;;;1.42;;
26516;SDS011;14190;51.342;6.338;2024-01-25T02:29:20;6.17;;;1.07;;
26516;SDS011;14190;51.342;6.338;2024-01-25T02:31:48;3.22;;;1.22;;
26516;SDS011;14190;51.342;6.338;2024-01-25T02:34:15;9.68;;;2.10;;
26516;SDS011;14190;51.342;6.338;2024-01-25T02:36:42;5.47;;;1.77;;
26516;SDS011;14190;51.342;6.338;2024-01-25T02:39:10;1.65;;;0.85;;
26516;SDS011;14190;51.342;6.338;2024-01-25T02:41:37;11.28;;;2.05;;
26516;SDS011;14190;51.342;6.338;2024-01-25T02:44:04;7.22;;;1.90;;
26516;SDS011;14190;51.342;6.338;2024-01-25T02:46:32;4.75;;;0.72;;
26516;SDS011;14190;51.342;6.338;2024-01-25T02:48:59;2.08;;;1.10;;
26516;SDS011;14190;51.342;6.338;2024-01-25T02:51:26;7.80;;;1.57;;
26516;SDS011;14190;51.342;6.338;2024-01-25T02:53:54;4.83;;;1.37;;
26516;SDS011;14190;51.342;6.338;2024-01-25T02:56:21;6.78;;;2.05;;
26516;SDS011;14190;51.342;6.338;2024-01-25T02:58:48;10.58;;;2.15;;
26516;SDS011;14190;51.342;6.338;2024-01-25T03:01:16;7.28;;;2.33;;
26516;SDS011;14190;51.342;6.338;2024-01-25T03:03:43;3.72;;;0.88;;
26516;SDS011;14190;51.342;6.338;2024-01-25T03:06:10;13.58;;;1.77;;
26516;SDS011;14190;51.342;6.338;2024-01-25T03:08:38;7.83;;;2.62;;
26516;SDS011;14190;51.342;6.338;2024-01-25T03:11:05;9.58;;;2.00;;
26516;SDS011;14190;51.342;6.338;2024-01-25T03:13:32;5.83;;;1.90;;
26516;SDS011;14190;51.342;6.338;2024-01-25T03:16:00;8.30;;;1.67;;
26516;SDS011;14190;51.342;6.338;2024-01-25T03:18:28;14.58;;;1.20;;
26516;SDS011;14190;51.342;6.338;2024-01-25T03:20:55;13.40;;;2.15;;
26516;SDS011;14190;51.342;6.338;2024-01-25T03:23:23;2.25;;;1.07;;
26516;SDS011;14190;51.342;6.338;2024-01-25T03:25:50;7.58;;;1.52;;
26516;SDS011;14190;51.342;6.338;2024-01-25T03:28:17;5.35;;;1.75;;
26516;SDS011;14190;51.342;6.338;2024-01-25T03:30:45;3.83;;;2.22;;
26516;SDS011;14190;51.342;6.338;2024-01-25T03:33:12;2.77;;;1.85;;
26516;SDS011;14190;51.342;6.338;2024-01-25T03:35:40;21.60;;;1.70;;
26516;SDS011;14190;51.342;6.338;2024-01-25T03:38:07;13.78;;;2.05;;
26516;SDS011;14190;51.342;6.338;2024-01-25T03:40:34;4.72;;;1.27;;
26516;SDS011;14190;51.342;6.338;2024-01-25T03:43:02;4.70;;;0.95;;
26516;SDS011;14190;51.342;6.338;2024-01-25T03:45:29;1.67;;;0.68;;
26516;SDS011;14190;51.342;6.338;2024-01-25T03:47:58;6.17;;;1.02;;
26516;SDS011;14190;51.342;6.338;2024-01-25T03:50:26;8.43;;;0.90;;
26516;SDS011;14190;51.342;6.338;2024-01-25T03:52:53;4.58;;;2.55;;
26516;SDS011;14190;51.342;6.338;2024-01-25T03:55:21;4.95;;;1.35;;
26516;SDS011;14190;51.342;6.338;2024-01-25T03:57:48;17.02;;;1.47;;
26516;SDS011;14190;51.342;6.338;2024-01-25T04:00:15;3.80;;;2.47;;
26516;SDS011;14190;51.342;6.338;2024-01-25T04:02:43;4.58;;;0.93;;
26516;SDS011;14190;51.342;6.338;2024-01-25T04:05:10;14.87;;;2.35;;
26516;SDS011;14190;51.342;6.338;2024-01-25T04:07:38;6.87;;;1.22;;
26516;SDS011;14190;51.342;6.338;2024-01-25T04:10:05;4.40;;;1.25;;
26516;SDS011;14190;51.342;6.338;2024-01-25T04:12:33;2.20;;;1.60;;
26516;SDS011;14190;51.342;6.338;2024-01-25T04:15:00;8.25;;;1.37;;
26516;SDS011;14190;51.342;6.338;2024-01-25T04:17:28;3.17;;;1.52;;
26516;SDS011;14190;51.342;6.338;2024-01-25T04:19:55;3.83;;;1.62;;
26516;SDS011;14190;51.342;6.338;2024-01-25T04:22:22;12.25;;;3.02;;
26516;SDS011;14190;51.342;6.338;2024-01-25T04:24:50;20.50;;;4.03;;
26516;SDS011;14190;51.342;6.338;2024-01-25T04:27:17;10.60;;;2.08;;
26516;SDS011;14190;51.342;6.338;2024-01-25T04:29:45;5.03;;;1.27;;
26516;SDS011;14190;51.342;6.338;2024-01-25T04:32:12;4.72;;;1.65;;
26516;SDS011;14190;51.342;6.338;2024-01-25T04:34:40;2.50;;;0.82;;
26516;SDS011;14190;51.342;6.338;2024-01-25T04:37:07;6.03;;;1.85;;
26516;SDS011;14190;51.342;6.338;2024-01-25T04:39:35;3.45;;;1.27;;
26516;SDS011;14190;51.342;6.338;2024-01-25T04:42:02;6.65;;;1.67;;
26516;SDS011;14190;51.342;6.338;2024-01-25T04:44:29;1.00;;;0.88;;
26516;SDS011;14190;51.342;6.338;2024-01-25T04:46:57;2.77;;;1.72;;
26516;SDS011;14190;51.342;6.338;2024-01-25T04:49:24;6.12;;;1.32;;
26516;SDS011;14190;51.342;6.338;2024-01-25T04:51:51;8.08;;;2.08;;
26516;SDS011;14190;51.342;6.338;2024-01-25T04:54:19;5.60;;;1.05;;
26516;SDS011;14190;51.342;6.338;2024-01-25T04:56:46;2.42;;;1.30;;
26516;SDS011;14190;51.342;6.338;2024-01-25T04:59:13;4.45;;;1.47;;
26516;SDS011;14190;51.342;6.338;2024-01-25T05:01:41;12.73;;;1.87;;
26516;SDS011;14190;51.342;6.338;2024-01-25T05:04:08;11.05;;;1.52;;
26516;SDS011;14190;51.342;6.338;2024-01-25T05:06:36;3.25;;;1.00;;
26516;SDS011;14190;51.342;6.338;2024-01-25T05:09:03;7.15;;;1.67;;
26516;SDS011;14190;51.342;6.338;2024-01-25T05:11:30;8.75;;;1.40;;
26516;SDS011;14190;51.342;6.338;2024-01-25T05:13:58;7.60;;;1.27;;
26516;SDS011;14190;51.342;6.338;2024-01-25T05:16:25;12.05;;;1.60;;
26516;SDS011;14190;51.342;6.338;2024-01-25T05:18:52;2.35;;;0.98;;
26516;SDS011;14190;51.342;6.338;2024-01-25T05:21:20;1.62;;;0.95;;
26516;SDS011;14190;51.342;6.338;2024-01-25T05:23:47;3.60;;;1.15;;
26516;SDS011;14190;51.342;6.338;2024-01-25T05:26:15;5.42;;;1.50;;
26516;SDS011;14190;51.342;6.338;2024-01-25T05:28:43;11.85;;;2.15;;
26516;SDS011;14190;51.342;6.338;2024-01-25T05:31:10;7.28;;;4.50;;
26516;SDS011;14190;51.342;6.338;2024-01-25T05:33:42;16.75;;;3.27;;
26516;SDS011;14190;51.342;6.338;2024-01-25T05:36:10;4.15;;;1.32;;
26516;SDS011;14190;51.342;6.338;2024-01-25T05:38:38;8.05;;;1.92;;
26516;SDS011;14190;51.342;6.338;2024-01-25T05:41:05;3.22;;;0.93;;
26516;SDS011;14190;51.342;6.338;2024-01-25T05:43:33;8.43;;;0.95;;
26516;SDS011;14190;51.342;6.338;2024-01-25T05:46:01;2.92;;;0.90;;
26516;SDS011;14190;51.342;6.338;2024-01-25T05:48:28;8.55;;;1.25;;
26516;SDS011;14190;51.342;6.338;2024-01-25T05:50:56;3.33;;;0.85;;
26516;SDS011;14190;51.342;6.338;2024-01-25T05:53:23;20.12;;;1.87;;
26516;SDS011;14190;51.342;6.338;2024-01-25T05:55:50;4.55;;;2.10;;
26516;SDS011;14190;51.342;6.338;2024-01-25T05:58:18;14.13;;;1.77;;
26516;SDS011;14190;51.342;6.338;2024-01-25T06:00:45;15.40;;;3.50;;
26516;SDS011;14190;51.342;6.338;2024-01-25T06:03:12;6.42;;;2.27;;
26516;SDS011;14190;51.342;6.338;2024-01-25T06:05:40;17.87;;;3.10;;
26516;SDS011;14190;51.342;6.338;2024-01-25T06:08:07;11.22;;;3.42;;
26516;SDS011;14190;51.342;6.338;2024-01-25T06:10:35;17.45;;;2.00;;
26516;SDS011;14190;51.342;6.338;2024-01-25T06:13:02;3.00;;;1.60;;
26516;SDS011;14190;51.342;6.338;2024-01-25T06:15:30;4.50;;;1.47;;
26516;SDS011;14190;51.342;6.338;2024-01-25T06:17:58;5.70;;;1.85;;
26516;SDS011;14190;51.342;6.338;2024-01-25T06:20:25;4.10;;;2.62;;
26516;SDS011;14190;51.342;6.338;2024-01-25T06:22:53;2.52;;;1.55;;
26516;SDS011;14190;51.342;6.338;2024-01-25T06:25:20;4.53;;;1.30;;
26516;SDS011;14190;51.342;6.338;2024-01-25T06:27:48;5.35;;;2.27;;
26516;SDS011;14190;51.342;6.338;2024-01-25T06:30:16;5.60;;;1.60;;
26516;SDS011;14190;51.342;6.338;2024-01-25T06:32:45;6.67;;;2.87;;
26516;SDS011;14190;51.342;6.338;2024-01-25T06:35:13;2.70;;;1.35;;
26516;SDS011;14190;51.342;6.338;2024-01-25T06:37:42;38.67;;;2.80;;
26516;SDS011;14190;51.342;6.338;2024-01-25T06:40:09;2.15;;;1.47;;
26516;SDS011;14190;51.342;6.338;2024-01-25T06:42:36;7.83;;;1.40;;
26516;SDS011;14190;51.342;6.338;2024-01-25T06:45:04;13.93;;;2.67;;
26516;SDS011;14190;51.342;6.338;2024-01-25T06:47:31;10.08;;;2.33;;
26516;SDS011;14190;51.342;6.338;2024-01-25T06:49:59;5.53;;;1.30;;
26516;SDS011;14190;51.342;6.338;2024-01-25T06:52:26;3.83;;;1.87;;
26516;SDS011;14190;51.342;6.338;2024-01-25T06:54:54;17.20;;;2.72;;
26516;SDS011;14190;51.342;6.338;2024-01-25T06:57:22;6.33;;;2.85;;
26516;SDS011;14190;51.342;6.338;2024-01-25T06:59:49;7.70;;;1.17;;
26516;SDS011;14190;51.342;6.338;2024-01-25T07:02:17;3.15;;;0.93;;
26516;SDS011;14190;51.342;6.338;2024-01-25T07:04:44;5.83;;;1.67;;
26516;SDS011;14190;51.342;6.338;2024-01-25T07:07:11;9.93;;;3.58;;
26516;SDS011;14190;51.342;6.338;2024-01-25T07:09:39;8.00;;;1.50;;
26516;SDS011;14190;51.342;6.338;2024-01-25T07:12:07;4.80;;;2.35;;
26516;SDS011;14190;51.342;6.338;2024-01-25T07:14:34;11.90;;;3.85;;
26516;SDS011;14190;51.342;6.338;2024-01-25T07:17:01;10.95;;;3.35;;
26516;SDS011;14190;51.342;6.338;2024-01-25T07:19:29;12.43;;;3.52;;
26516;SDS011;14190;51.342;6.338;2024-01-25T07:21:56;9.13;;;3.50;;
26516;SDS011;14190;51.342;6.338;2024-01-25T07:24:24;14.90;;;4.12;;
26516;SDS011;14190;51.342;6.338;2024-01-25T07:26:52;13.62;;;6.30;;
26516;SDS011;14190;51.342;6.338;2024-01-25T07:29:20;9.23;;;4.70;;
26516;SDS011;14190;51.342;6.338;2024-01-25T07:31:47;16.85;;;5.15;;
26516;SDS011;14190;51.342;6.338;2024-01-25T07:34:15;9.25;;;4.35;;
26516;SDS011;14190;51.342;6.338;2024-01-25T07:36:42;12.45;;;4.55;;
26516;SDS011;14190;51.342;6.338;2024-01-25T07:39:10;13.35;;;5.53;;
26516;SDS011;14190;51.342;6.338;2024-01-25T07:41:38;22.77;;;6.83;;
26516;SDS011;14190;51.342;6.338;2024-01-25T07:44:05;12.35;;;7.30;;
26516;SDS011;14190;51.342;6.338;2024-01-25T07:46:32;17.15;;;3.35;;
26516;SDS011;14190;51.342;6.338;2024-01-25T07:49:00;12.40;;;4.55;;
26516;SDS011;14190;51.342;6.338;2024-01-25T07:51:27;17.85;;;4.35;;
26516;SDS011;14190;51.342;6.338;2024-01-25T07:53:54;12.25;;;5.60;;
26516;SDS011;14190;51.342;6.338;2024-01-25T07:56:22;22.42;;;5.37;;
26516;SDS011;14190;51.342;6.338;2024-01-25T07:58:49;14.10;;;5.15;;
26516;SDS011;14190;51.342;6.338;2024-01-25T08:01:17;11.95;;;4.80;;
26516;SDS011;14190;51.342;6.338;2024-01-25T08:03:45;15.40;;;6.08;;
26516;SDS011;14190;51.342;6.338;2024-01-25T08:06:12;10.53;;;4.42;;
26516;SDS011;14190;51.342;6.338;2024-01-25T08:08:40;23.40;;;6.45;;
26516;SDS011;14190;51.342;6.338;2024-01-25T08:11:07;16.82;;;4.03;;
26516;SDS011;14190;51.342;6.338;2024-01-25T08:13:35;34.25;;;7.22;;
26516;SDS011;14190;51.342;6.338;2024-01-25T08:16:02;29.27;;;7.50;;
26516;SDS011;14190;51.342;6.338;2024-01-25T08:18:30;19.55;;;8.75;;
26516;SDS011;14190;51.342;6.338;2024-01-25T08:20:57;15.60;;;5.22;;
26516;SDS011;14190;51.342;6.338;2024-01-25T08:23:24;22.25;;;5.55;;
26516;SDS011;14190;51.342;6.338;2024-01-25T08:25:52;23.32;;;6.47;;
26516;SDS011;14190;51.342;6.338;2024-01-25T08:28:19;15.70;;;5.20;;
26516;SDS011;14190;51.342;6.338;2024-01-25T08:30:48;13.83;;;4.78;;
26516;SDS011;14190;51.342;6.338;2024-01-25T08:33:15;14.30;;;5.65;;
26516;SDS011;14190;51.342;6.338;2024-01-25T08:35:42;19.92;;;5.75;;
26516;SDS011;14190;51.342;6.338;2024-01-25T08:38:10;12.35;;;4.22;;
26516;SDS011;14190;51.342;6.338;2024-01-25T08:40:37;15.60;;;4.00;;
26516;SDS011;14190;51.342;6.338;2024-01-25T08:43:05;14.90;;;5.33;;
26516;SDS011;14190;51.342;6.338;2024-01-25T08:45:32;20.60;;;7.47;;
26516;SDS011;14190;51.342;6.338;2024-01-25T08:48:00;32.42;;;8.58;;
26516;SDS011;14190;51.342;6.338;2024-01-25T08:50:27;16.50;;;6.50;;
26516;SDS011;14190;51.342;6.338;2024-01-25T08:52:54;21.27;;;7.75;;
26516;SDS011;14190;51.342;6.338;2024-01-25T08:55:22;20.12;;;7.58;;
26516;SDS011;14190;51.342;6.338;2024-01-25T08:57:49;10.10;;;4.65;;
26516;SDS011;14190;51.342;6.338;2024-01-25T09:00:17;23.07;;;5.95;;
26516;SDS011;14190;51.342;6.338;2024-01-25T09:02:44;13.78;;;6.00;;
26516;SDS011;14190;51.342;6.338;2024-01-25T09:05:12;26.40;;;8.25;;
26516;SDS011;14190;51.342;6.338;2024-01-25T09:07:39;14.63;;;7.12;;
26516;SDS011;14190;51.342;6.338;2024-01-25T09:10:07;32.65;;;8.68;;
26516;SDS011;14190;51.342;6.338;2024-01-25T09:12:34;12.93;;;5.28;;
26516;SDS011;14190;51.342;6.338;2024-01-25T09:15:02;16.50;;;6.67;;
26516;SDS011;14190;51.342;6.338;2024-01-25T09:17:30;20.92;;;7.40;;
26516;SDS011;14190;51.342;6.338;2024-01-25T09:19:57;16.50;;;5.45;;
26516;SDS011;14190;51.342;6.338;2024-01-25T09:22:29;15.70;;;8.10;;
26516;SDS011;14190;51.342;6.338;2024-01-25T09:24:56;16.20;;;4.92;;
26516;SDS011;14190;51.342;6.338;2024-01-25T09:27:24;21.25;;;8.20;;
26516;SDS011;14190;51.342;6.338;2024-01-25T09:29:51;21.95;;;6.78;;
26516;SDS011;14190;51.342;6.338;2024-01-25T09:32:18;25.40;;;6.55;;
26516;SDS011;14190;51.342;6.338;2024-01-25T09:34:47;20.20;;;5.28;;
26516;SDS011;14190;51.342;6.338;2024-01-25T09:37:14;13.58;;;4.08;;
26516;SDS011;14190;51.342;6.338;2024-01-25T09:39:41;32.83;;;5.83;;
26516;SDS011;14190;51.342;6.338;2024-01-25T09:42:09;12.20;;;4.60;;
26516;SDS011;14190;51.342;6.338;2024-01-25T09:44:38;19.35;;;8.55;;
26516;SDS011;14190;51.342;6.338;2024-01-25T09:47:07;22.10;;;5.72;;
26516;SDS011;14190;51.342;6.338;2024-01-25T09:49:35;10.40;;;4.95;;
26516;SDS011;14190;51.342;6.338;2024-01-25T09:52:02;17.42;;;6.90;;
26516;SDS011;14190;51.342;6.338;2024-01-25T09:54:36;11.95;;;5.65;;
26516;SDS011;14190;51.342;6.338;2024-01-25T09:57:03;16.67;;;8.15;;
26516;SDS011;14190;51.342;6.338;2024-01-25T09:59:32;22.48;;;5.97;;
26516;SDS011;14190;51.342;6.338;2024-01-25T10:02:01;20.52;;;7.15;;
26516;SDS011;14190;51.342;6.338;2024-01-25T10:04:28;28.92;;;6.17;;
26516;SDS011;14190;51.342;6.338;2024-01-25T10:06:56;26.50;;;6.92;;
26516;SDS011;14190;51.342;6.338;2024-01-25T10:09:24;12.50;;;4.62;;
26516;SDS011;14190;51.342;6.338;2024-01-25T10:11:51;15.18;;;6.87;;
26516;SDS011;14190;51.342;6.338;2024-01-25T10:14:18;20.77;;;5.85;;
26516;SDS011;14190;51.342;6.338;2024-01-25T10:16:46;16.73;;;6.45;;
26516;SDS011;14190;51.342;6.338;2024-01-25T10:19:13;11.53;;;5.05;;
26516;SDS011;14190;51.342;6.338;2024-01-25T10:21:41;18.48;;;6.42;;
26516;SDS011;14190;51.342;6.338;2024-01-25T10:24:09;9.68;;;4.55;;
26516;SDS011;14190;51.342;6.338;2024-01-25T10:26:37;10.93;;;4.95;;
26516;SDS011;14190;51.342;6.338;2024-01-25T10:29:04;12.15;;;3.10;;
26516;SDS011;14190;51.342;6.338;2024-01-25T10:31:32;11.35;;;3.35;;
26516;SDS011;14190;51.342;6.338;2024-01-25T10:34:00;17.60;;;4.58;;
26516;SDS011;14190;51.342;6.338;2024-01-25T10:36:28;21.68;;;6.25;;
26516;SDS011;14190;51.342;6.338;2024-01-25T10:38:56;22.25;;;7.58;;
26516;SDS011;14190;51.342;6.338;2024-01-25T10:41:24;19.48;;;4.67;;
26516;SDS011;14190;51.342;6.338;2024-01-25T10:43:51;11.75;;;5.30;;
26516;SDS011;14190;51.342;6.338;2024-01-25T10:46:19;12.88;;;5.03;;
26516;SDS011;14190;51.342;6.338;2024-01-25T10:48:47;19.05;;;5.97;;
26516;SDS011;14190;51.342;6.338;2024-01-25T10:51:14;17.73;;;4.78;;
26516;SDS011;14190;51.342;6.338;2024-01-25T10:53:44;16.12;;;5.72;;
26516;SDS011;14190;51.342;6.338;2024-01-25T10:56:11;10.93;;;5.10;;
26516;SDS011;14190;51.342;6.338;2024-01-25T10:58:42;19.82;;;6.28;;
26516;SDS011;14190;51.342;6.338;2024-01-25T11:01:10;23.73;;;7.08;;
26516;SDS011;14190;51.342;6.338;2024-01-25T11:03:38;13.40;;;5.40;;
26516;SDS011;14190;51.342;6.338;2024-01-25T11:06:12;14.47;;;4.85;;
26516;SDS011;14190;51.342;6.338;2024-01-25T11:08:36;13.15;;;6.65;;
26516;SDS011;14190;51.342;6.338;2024-01-25T11:11:07;13.93;;;5.72;;
26516;SDS011;14190;51.342;6.338;2024-01-25T11:13:43;13.22;;;5.37;;
26516;SDS011;14190;51.342;6.338;2024-01-25T11:16:13;21.75;;;7.33;;
26516;SDS011;14190;51.342;6.338;2024-01-25T11:18:51;19.92;;;8.05;;
26516;SDS011;14190;51.342;6.338;2024-01-25T11:21:39;13.78;;;5.45;;
26516;SDS011;14190;51.342;6.338;2024-01-25T11:24:01;17.62;;;6.37;;
26516;SDS011;14190;51.342;6.338;2024-01-25T11:26:28;23.25;;;6.65;;
26516;SDS011;14190;51.342;6.338;2024-01-25T11:28:56;17.32;;;6.33;;
26516;SDS011;14190;51.342;6.338;2024-01-25T11:31:26;9.70;;;4.22;;
26516;SDS011;14190;51.342;6.338;2024-01-25T11:34:01;16.95;;;5.28;;
26516;SDS011;14190;51.342;6.338;2024-01-25T11:36:26;8.20;;;2.98;;
26516;SDS011;14190;51.342;6.338;2024-01-25T11:38:53;14.18;;;4.83;;
26516;SDS011;14190;51.342;6.338;2024-01-25T11:41:21;19.80;;;3.58;;
26516;SDS011;14190;51.342;6.338;2024-01-25T11:43:49;22.67;;;3.62;;
26516;SDS011;14190;51.342;6.338;2024-01-25T11:46:16;38.48;;;5.95;;
26516;SDS011;14190;51.342;6.338;2024-01-25T11:48:44;15.72;;;5.45;;
26516;SDS011;14190;51.342;6.338;2024-01-25T11:51:12;5.25;;;3.27;;
26516;SDS011;14190;51.342;6.338;2024-01-25T11:53:39;12.00;;;3.67;;
26516;SDS011;14190;51.342;6.338;2024-01-25T11:56:13;9.65;;;3.90;;
26516;SDS011;14190;51.342;6.338;2024-01-25T11:58:37;12.07;;;3.65;;
26516;SDS011;14190;51.342;6.338;2024-01-25T12:01:05;12.88;;;3.67;;
26516;SDS011;14190;51.342;6.338;2024-01-25T12:03:34;20.95;;;5.05;;
26516;SDS011;14190;51.342;6.338;2024-01-25T12:06:05;6.00;;;4.70;;
26516;SDS011;14190;51.342;6.338;2024-01-25T12:08:34;13.45;;;5.40;;
26516;SDS011;14190;51.342;6.338;2024-01-25T12:11:03;13.90;;;5.03;;
26516;SDS011;14190;51.342;6.338;2024-01-25T12:13:31;18.30;;;5.87;;
26516;SDS011;14190;51.342;6.338;2024-01-25T12:16:00;11.55;;;3.15;;
26516;SDS011;14190;51.342;6.338;2024-01-25T12:18:28;41.25;;;5.47;;
26516;SDS011;14190;51.342;6.338;2024-01-25T12:20:57;12.30;;;4.97;;
26516;SDS011;14190;51.342;6.338;2024-01-25T12:23:29;12.85;;;4.80;;
26516;SDS011;14190;51.342;6.338;2024-01-25T12:25:53;14.05;;;4.78;;
26516;SDS011;14190;51.342;6.338;2024-01-25T12:28:20;15.30;;;5.58;;
26516;SDS011;14190;51.342;6.338;2024-01-25T12:30:48;14.70;;;5.72;;
26516;SDS011;14190;51.342;6.338;2024-01-25T12:33:15;16.75;;;6.05;;
26516;SDS011;14190;51.342;6.338;2024-01-25T12:35:42;17.40;;;4.92;;
26516;SDS011;14190;51.342;6.338;2024-01-25T12:38:10;16.67;;;3.92;;
26516;SDS011;14190;51.342;6.338;2024-01-25T12:40:37;18.40;;;5.00;;
26516;SDS011;14190;51.342;6.338;2024-01-25T12:43:05;14.40;;;4.75;;
26516;SDS011;14190;51.342;6.338;2024-01-25T12:45:32;14.20;;;5.62;;
26516;SDS011;14190;51.342;6.338;2024-01-25T12:48:00;9.65;;;3.12;;
26516;SDS011;14190;51.342;6.338;2024-01-25T12:50:29;11.97;;;2.72;;
26516;SDS011;14190;51.342;6.338;2024-01-25T12:52:56;19.70;;;4.90;;
26516;SDS011;14190;51.342;6.338;2024-01-25T12:55:23;13.22;;;7.85;;
26516;SDS011;14190;51.342;6.338;2024-01-25T12:57:51;15.72;;;5.08;;
26516;SDS011;14190;51.342;6.338;2024-01-25T13:00:18;10.30;;;5.75;;
26516;SDS011;14190;51.342;6.338;2024-01-25T13:02:46;12.05;;;3.95;;
26516;SDS011;14190;51.342;6.338;2024-01-25T13:05:13;15.50;;;4.70;;
26516;SDS011;14190;51.342;6.338;2024-01-25T13:07:40;22.87;;;4.58;;
26516;SDS011;14190;51.342;6.338;2024-01-25T13:10:11;9.13;;;3.77;;
26516;SDS011;14190;51.342;6.338;2024-01-25T13:15:05;6.53;;;2.60;;
26516;SDS011;14190;51.342;6.338;2024-01-25T13:17:37;9.98;;;4.90;;
26516;SDS011;14190;51.342;6.338;2024-01-25T13:20:05;18.23;;;4.20;;
26516;SDS011;14190;51.342;6.338;2024-01-25T13:22:35;19.35;;;4.55;;
26516;SDS011;14190;51.342;6.338;2024-01-25T13:25:03;20.68;;;4.83;;
26516;SDS011;14190;51.342;6.338;2024-01-25T13:27:30;11.08;;;4.37;;
26516;SDS011;14190;51.342;6.338;2024-01-25T13:29:57;9.95;;;3.40;;
26516;SDS011;14190;51.342;6.338;2024-01-25T13:32:25;14.35;;;4.72;;
26516;SDS011;14190;51.342;6.338;2024-01-25T13:34:52;10.32;;;3.67;;
26516;SDS011;14190;51.342;6.338;2024-01-25T13:37:20;7.80;;;3.98;;
26516;SDS011;14190;51.342;6.338;2024-01-25T13:39:47;7.75;;;3.55;;
26516;SDS011;14190;51.342;6.338;2024-01-25T13:42:14;19.48;;;4.12;;
26516;SDS011;14190;51.342;6.338;2024-01-25T13:44:42;13.93;;;2.87;;
26516;SDS011;14190;51.342;6.338;2024-01-25T13:47:09;15.93;;;5.33;;
26516;SDS011;14190;51.342;6.338;2024-01-25T13:49:36;5.75;;;3.22;;
26516;SDS011;14190;51.342;6.338;2024-01-25T13:52:04;29.98;;;4.62;;
26516;SDS011;14190;51.342;6.338;2024-01-25T13:54:32;25.57;;;6.33;;
26516;SDS011;14190;51.342;6.338;2024-01-25T13:57:00;9.28;;;2.95;;
26516;SDS011;14190;51.342;6.338;2024-01-25T13:59:27;8.05;;;5.45;;
26516;SDS011;14190;51.342;6.338;2024-01-25T14:01:54;6.42;;;3.45;;
26516;SDS011;14190;51.342;6.338;2024-01-25T14:04:22;12.23;;;4.05;;
26516;SDS011;14190;51.342;6.338;2024-01-25T14:06:49;17.32;;;3.90;;
26516;SDS011;14190;51.342;6.338;2024-01-25T14:09:17;11.68;;;4.40;;
26516;SDS011;14190;51.342;6.338;2024-01-25T14:11:44;8.18;;;4.70;;
26516;SDS011;14190;51.342;6.338;2024-01-25T14:14:11;12.10;;;3.55;;
26516;SDS011;14190;51.342;6.338;2024-01-25T14:16:39;5.72;;;4.00;;
26516;SDS011;14190;51.342;6.338;2024-01-25T14:19:06;8.05;;;2.60;;
26516;SDS011;14190;51.342;6.338;2024-01-25T14:21:34;22.40;;;3.45;;
26516;SDS011;14190;51.342;6.338;2024-01-25T14:24:01;11.33;;;3.80;;
26516;SDS011;14190;51.342;6.338;2024-01-25T14:26:29;7.03;;;2.12;;
26516;SDS011;14190;51.342;6.338;2024-01-25T14:28:56;7.67;;;3.33;;
26516;SDS011;14190;51.342;6.338;2024-01-25T14:31:23;18.27;;;4.50;;
26516;SDS011;14190;51.342;6.338;2024-01-25T14:33:51;13.38;;;4.97;;
26516;SDS011;14190;51.342;6.338;2024-01-25T14:36:18;12.55;;;2.90;;
26516;SDS011;14190;51.342;6.338;2024-01-25T14:38:46;5.97;;;2.77;;
26516;SDS011;14190;51.342;6.338;2024-01-25T14:41:13;7.55;;;2.47;;
26516;SDS011;14190;51.342;6.338;2024-01-25T14:43:40;5.87;;;2.15;;
26516;SDS011;14190;51.342;6.338;2024-01-25T14:46:08;9.13;;;2.83;;